Time;durP1;ratioP1;P1;durP2;ratioP2;P2;SDS_P1;SDS_P2;PMS_P1;PMS_P2;Temp;Humidity;BMP_temperature;BMP_pressure;BME280_temperature;BME280_humidity;BME280_pressure;Samples;Min_cycle;Max_cycle;Signal;HPM_P1;HPM_P2
2022/03/04 00:00:31;;;;;;;2.33;1.90;;;;;;;;;;6266070;22;20622;-41
2022/03/04 00:02:56;;;;;;;2.70;2.00;;;;;;;;;;6266003;22;20000;-40
2022/03/04 00:05:22;;;;;;;2.80;2.25;;;;;;;;;;6239369;22;20078;-41
2022/03/04 00:07:47;;;;;;;2.60;2.00;;;;;;;;;;6266241;22;20010;-41
2022/03/04 00:10:13;;;;;;;2.78;2.10;;;;;;;;;;6266486;22;20352;-41
2022/03/04 00:12:38;;;;;;;2.17;1.98;;;;;;;;;;6266032;22;20004;-41
2022/03/04 00:15:04;;;;;;;2.63;1.73;;;;;;;;;;6265881;22;20003;-41
2022/03/04 00:17:30;;;;;;;2.80;1.92;;;;;;;;;;6265644;22;20085;-39
2022/03/04 00:19:55;;;;;;;2.88;2.28;;;;;;;;;;6265833;22;20029;-41
2022/03/04 00:22:21;;;;;;;2.35;1.83;;;;;;;;;;6265936;22;20008;-41
2022/03/04 00:24:46;;;;;;;2.45;1.90;;;;;;;;;;6265456;22;20022;-41
2022/03/04 00:27:12;;;;;;;2.15;1.92;;;;;;;;;;6266118;22;20004;-41
2022/03/04 00:29:37;;;;;;;2.40;1.77;;;;;;;;;;6266000;22;20014;-41
2022/03/04 00:32:03;;;;;;;2.63;2.10;;;;;;;;;;6265758;22;20003;-41
2022/03/04 00:34:28;;;;;;;2.30;1.83;;;;;;;;;;6265809;22;20789;-42
2022/03/04 00:36:54;;;;;;;3.70;2.10;;;;;;;;;;6265698;22;20008;-41
2022/03/04 00:39:19;;;;;;;3.33;2.42;;;;;;;;;;6265564;22;20007;-41
2022/03/04 00:41:44;;;;;;;2.17;1.88;;;;;;;;;;6265593;22;20012;-40
2022/03/04 00:44:10;;;;;;;2.72;2.00;;;;;;;;;;6238065;22;20014;-40
2022/03/04 00:46:36;;;;;;;2.65;1.90;;;;;;;;;;6265029;22;20011;-41
2022/03/04 00:49:02;;;;;;;3.00;2.05;;;;;;;;;;6265384;22;20057;-39
2022/03/04 00:51:28;;;;;;;2.95;2.10;;;;;;;;;;6265631;22;20004;-41
2022/03/04 00:53:53;;;;;;;2.58;1.90;;;;;;;;;;6264295;22;20015;-41
2022/03/04 00:56:18;;;;;;;2.03;1.83;;;;;;;;;;6265846;22;20004;-41
2022/03/04 00:58:44;;;;;;;2.85;1.80;;;;;;;;;;6265621;22;20020;-41
2022/03/04 01:01:09;;;;;;;2.08;1.80;;;;;;;;;;6265440;22;20014;-42
2022/03/04 01:03:35;;;;;;;2.85;2.10;;;;;;;;;;6265313;22;20033;-39
2022/03/04 01:06:01;;;;;;;2.75;2.10;;;;;;;;;;6265134;22;20408;-41
2022/03/04 01:08:26;;;;;;;1.98;1.73;;;;;;;;;;6265282;22;20007;-41
2022/03/04 01:10:52;;;;;;;2.47;1.80;;;;;;;;;;6265554;22;20302;-41
2022/03/04 01:13:17;;;;;;;2.08;1.88;;;;;;;;;;6265702;22;20000;-41
2022/03/04 01:15:43;;;;;;;3.22;1.95;;;;;;;;;;6265046;22;20012;-41
2022/03/04 01:18:08;;;;;;;2.08;1.65;;;;;;;;;;6265668;22;20003;-41
2022/03/04 01:20:34;;;;;;;2.05;1.80;;;;;;;;;;6265543;22;20007;-37
2022/03/04 01:23:00;;;;;;;2.08;1.88;;;;;;;;;;6265513;22;20452;-41
2022/03/04 01:25:25;;;;;;;2.42;1.70;;;;;;;;;;6265497;22;20510;-41
2022/03/04 01:27:50;;;;;;;2.40;1.88;;;;;;;;;;6265027;22;20065;-41
2022/03/04 01:30:16;;;;;;;2.60;1.60;;;;;;;;;;6265239;22;20014;-40
2022/03/04 01:32:41;;;;;;;2.63;2.20;;;;;;;;;;6264491;22;20439;-40
2022/03/04 01:35:08;;;;;;;2.67;1.90;;;;;;;;;;6264862;22;20446;-38
2022/03/04 01:37:34;;;;;;;2.35;1.95;;;;;;;;;;6265487;22;20057;-41
2022/03/04 01:39:59;;;;;;;2.17;1.83;;;;;;;;;;6265564;22;20551;-40
2022/03/04 01:42:25;;;;;;;1.98;1.70;;;;;;;;;;6265653;22;20004;-37
2022/03/04 01:44:50;;;;;;;2.60;1.83;;;;;;;;;;6264840;22;20035;-39
2022/03/04 01:47:15;;;;;;;2.75;1.90;;;;;;;;;;6264483;22;20004;-39
2022/03/04 01:49:41;;;;;;;2.65;2.15;;;;;;;;;;6264750;22;20008;-40
2022/03/04 01:52:07;;;;;;;2.28;1.83;;;;;;;;;;6264522;22;20004;-38
2022/03/04 01:54:33;;;;;;;2.42;1.80;;;;;;;;;;6264753;22;20781;-39
2022/03/04 01:56:58;;;;;;;2.75;2.15;;;;;;;;;;6264172;22;20015;-40
2022/03/04 01:59:24;;;;;;;2.45;1.95;;;;;;;;;;6263696;22;19999;-40
2022/03/04 02:01:51;;;;;;;2.15;1.80;;;;;;;;;;6262649;22;20069;-40
2022/03/04 02:04:16;;;;;;;2.50;2.00;;;;;;;;;;6211470;22;20003;-40
2022/03/04 02:06:41;;;;;;;1.83;1.63;;;;;;;;;;6210712;22;20008;-40
2022/03/04 02:09:07;;;;;;;2.90;1.50;;;;;;;;;;6263739;22;20303;-40
2022/03/04 02:11:32;;;;;;;2.22;1.83;;;;;;;;;;6263704;22;20434;-40
2022/03/04 02:13:57;;;;;;;2.40;1.80;;;;;;;;;;6262956;22;20007;-40
2022/03/04 02:16:32;;;;;;;2.85;1.83;;;;;;;;;;6263346;22;20004;-41
2022/03/04 02:18:58;;;;;;;2.30;1.80;;;;;;;;;;6236642;22;20479;-41
2022/03/04 02:21:23;;;;;;;2.30;1.73;;;;;;;;;;6262974;22;20004;-38
2022/03/04 02:23:48;;;;;;;2.15;1.85;;;;;;;;;;6263692;22;20008;-40
2022/03/04 02:26:14;;;;;;;2.67;1.90;;;;;;;;;;6263368;22;20008;-41
2022/03/04 02:28:41;;;;;;;2.33;2.08;;;;;;;;;;6236531;22;20722;-41
2022/03/04 02:31:06;;;;;;;2.35;1.90;;;;;;;;;;6263379;22;20371;-41
2022/03/04 02:33:31;;;;;;;2.08;1.55;;;;;;;;;;6263669;22;20003;-41
2022/03/04 02:35:57;;;;;;;2.22;1.90;;;;;;;;;;6263624;22;20065;-41
2022/03/04 02:38:22;;;;;;;2.58;1.83;;;;;;;;;;6263877;22;20007;-41
2022/03/04 02:40:48;;;;;;;2.65;2.00;;;;;;;;;;6263121;22;20019;-41
2022/03/04 02:43:13;;;;;;;2.63;2.10;;;;;;;;;;6263445;22;20004;-41
2022/03/04 02:45:39;;;;;;;2.10;1.80;;;;;;;;;;6262905;22;20677;-40
2022/03/04 02:48:04;;;;;;;2.10;1.83;;;;;;;;;;6263173;22;20007;-41
2022/03/04 02:50:29;;;;;;;2.78;1.90;;;;;;;;;;6263487;22;20004;-41
2022/03/04 02:52:56;;;;;;;3.05;2.13;;;;;;;;;;6262496;22;20015;-40
2022/03/04 02:55:21;;;;;;;2.20;1.75;;;;;;;;;;6263349;22;20007;-41
2022/03/04 02:57:47;;;;;;;2.45;1.90;;;;;;;;;;6215340;22;1107956;-42
2022/03/04 03:00:14;;;;;;;2.47;1.90;;;;;;;;;;6236985;22;20091;-40
2022/03/04 03:02:40;;;;;;;2.70;1.70;;;;;;;;;;6263606;22;20080;-39
2022/03/04 03:05:06;;;;;;;2.60;1.90;;;;;;;;;;6264085;22;20482;-41
2022/03/04 03:07:31;;;;;;;2.22;2.03;;;;;;;;;;6264117;22;20000;-40
2022/03/04 03:09:56;;;;;;;2.45;1.88;;;;;;;;;;6264383;22;20003;-41
2022/03/04 03:12:22;;;;;;;2.20;1.88;;;;;;;;;;6264585;22;19999;-41
2022/03/04 03:14:47;;;;;;;2.58;1.80;;;;;;;;;;6263902;22;20093;-41
2022/03/04 03:17:13;;;;;;;2.45;1.83;;;;;;;;;;6264547;22;20069;-41
2022/03/04 03:19:38;;;;;;;2.13;1.77;;;;;;;;;;6264221;22;20448;-41
2022/03/04 03:22:28;;;;;;;2.20;1.70;;;;;;;;;;6264232;22;20011;-40
2022/03/04 03:24:54;;;;;;;2.05;1.73;;;;;;;;;;6263492;22;20071;-38
2022/03/04 03:27:19;;;;;;;2.20;2.00;;;;;;;;;;6263979;22;20258;-40
2022/03/04 03:29:44;;;;;;;2.20;1.95;;;;;;;;;;6264158;22;20008;-40
2022/03/04 03:32:10;;;;;;;1.98;1.75;;;;;;;;;;6263902;22;20030;-41
2022/03/04 03:34:36;;;;;;;2.30;1.80;;;;;;;;;;6263565;22;20012;-39
2022/03/04 03:37:01;;;;;;;2.70;2.00;;;;;;;;;;6263974;22;20053;-41
2022/03/04 03:39:27;;;;;;;1.98;1.77;;;;;;;;;;6264306;22;20042;-41
2022/03/04 03:41:52;;;;;;;1.98;1.60;;;;;;;;;;6264408;22;20008;-41
2022/03/04 03:44:18;;;;;;;2.20;1.90;;;;;;;;;;6264427;22;20104;-41
2022/03/04 03:46:43;;;;;;;2.53;1.63;;;;;;;;;;6263858;22;20320;-40
2022/03/04 03:49:08;;;;;;;2.22;1.90;;;;;;;;;;6264367;22;20011;-41
2022/03/04 03:51:34;;;;;;;2.45;1.90;;;;;;;;;;6264341;22;19999;-40
2022/03/04 03:54:00;;;;;;;2.40;2.05;;;;;;;;;;6263947;22;20007;-41
2022/03/04 03:56:25;;;;;;;3.15;2.05;;;;;;;;;;6264065;22;20365;-41
2022/03/04 03:58:50;;;;;;;2.85;1.95;;;;;;;;;;6263593;22;20015;-41
2022/03/04 04:01:16;;;;;;;2.00;1.77;;;;;;;;;;6263737;22;20461;-41
2022/03/04 04:03:41;;;;;;;2.40;1.80;;;;;;;;;;6263905;22;20004;-41
2022/03/04 04:06:07;;;;;;;2.33;1.77;;;;;;;;;;6264034;22;20011;-40
2022/03/04 04:08:32;;;;;;;2.53;1.80;;;;;;;;;;6264523;22;20427;-40
2022/03/04 04:10:58;;;;;;;2.15;1.70;;;;;;;;;;6263874;22;20010;-41
2022/03/04 04:13:23;;;;;;;2.95;2.00;;;;;;;;;;6264082;22;20026;-41
2022/03/04 04:15:49;;;;;;;3.22;2.10;;;;;;;;;;6263991;22;20014;-40
2022/03/04 04:18:14;;;;;;;2.85;2.03;;;;;;;;;;6264354;22;20007;-40
2022/03/04 04:20:39;;;;;;;2.58;2.00;;;;;;;;;;6263961;22;20444;-41
2022/03/04 04:23:05;;;;;;;3.50;2.15;;;;;;;;;;6263998;22;20030;-41
2022/03/04 04:25:30;;;;;;;2.17;1.80;;;;;;;;;;6264073;22;20004;-40
2022/03/04 04:27:56;;;;;;;2.40;2.00;;;;;;;;;;6263153;22;20000;-41
2022/03/04 04:30:21;;;;;;;2.17;1.90;;;;;;;;;;6263850;22;20008;-41
2022/03/04 04:32:46;;;;;;;2.30;1.75;;;;;;;;;;6263632;22;20003;-40
2022/03/04 04:35:12;;;;;;;2.70;2.20;;;;;;;;;;6263497;22;20007;-41
2022/03/04 04:37:37;;;;;;;2.67;2.28;;;;;;;;;;6264968;22;20011;-41
2022/03/04 04:40:04;;;;;;;2.55;2.13;;;;;;;;;;6266024;22;20081;-40
2022/03/04 04:42:30;;;;;;;2.38;2.17;;;;;;;;;;6266008;22;20031;-40
2022/03/04 04:44:55;;;;;;;2.58;2.22;;;;;;;;;;6265122;22;20098;-39
2022/03/04 04:47:21;;;;;;;2.53;1.90;;;;;;;;;;6263972;22;20012;-41
2022/03/04 04:49:46;;;;;;;3.38;2.20;;;;;;;;;;6265281;22;20005;-41
2022/03/04 04:52:12;;;;;;;2.35;1.85;;;;;;;;;;6264847;22;20010;-41
2022/03/04 04:54:37;;;;;;;3.67;2.20;;;;;;;;;;6237801;22;20533;-40
2022/03/04 04:57:03;;;;;;;2.95;1.85;;;;;;;;;;6265242;22;20023;-39
2022/03/04 04:59:28;;;;;;;2.92;2.25;;;;;;;;;;6266086;22;20094;-41
2022/03/04 05:01:54;;;;;;;2.83;2.17;;;;;;;;;;6265619;22;20011;-41
2022/03/04 05:04:19;;;;;;;3.05;2.20;;;;;;;;;;6265956;22;20006;-42
2022/03/04 05:06:45;;;;;;;2.10;1.90;;;;;;;;;;6265651;22;20003;-42
2022/03/04 05:09:10;;;;;;;3.22;2.15;;;;;;;;;;6265640;22;19999;-42
2022/03/04 05:11:35;;;;;;;2.83;2.10;;;;;;;;;;6265571;22;19996;-41
2022/03/04 05:14:01;;;;;;;3.63;2.47;;;;;;;;;;6265582;22;20008;-39
2022/03/04 05:16:27;;;;;;;2.95;2.28;;;;;;;;;;6265639;22;20008;-41
2022/03/04 05:18:52;;;;;;;3.55;2.42;;;;;;;;;;6265433;22;20392;-40
2022/03/04 05:21:18;;;;;;;3.58;2.50;;;;;;;;;;6265760;22;20008;-41
2022/03/04 05:24:02;;;;;;;2.95;2.38;;;;;;;;;;6263370;22;20443;-40
2022/03/04 05:26:32;;;;;;;3.05;2.30;;;;;;;;;;6263465;22;20008;-40
2022/03/04 05:28:58;;;;;;;5.72;2.60;;;;;;;;;;6262936;22;20400;-41
2022/03/04 05:31:24;;;;;;;10.30;2.53;;;;;;;;;;6262894;22;20385;-43
2022/03/04 05:33:50;;;;;;;4.97;2.58;;;;;;;;;;6263161;22;20518;-40
2022/03/04 05:36:16;;;;;;;7.32;3.00;;;;;;;;;;6263003;22;20134;-41
2022/03/04 05:38:42;;;;;;;23.80;2.92;;;;;;;;;;6263119;22;20024;-39
2022/03/04 05:41:07;;;;;;;6.50;3.70;;;;;;;;;;6263056;22;19999;-42
2022/03/04 05:43:33;;;;;;;9.43;4.22;;;;;;;;;;6263443;22;19999;-40
2022/03/04 05:45:58;;;;;;;8.93;5.05;;;;;;;;;;6264903;22;20062;-42
2022/03/04 05:48:24;;;;;;;19.38;6.93;;;;;;;;;;6264813;22;20011;-41
2022/03/04 05:50:49;;;;;;;10.48;4.40;;;;;;;;;;6237213;22;20003;-42
2022/03/04 05:53:14;;;;;;;8.30;4.70;;;;;;;;;;6264019;22;20487;-42
2022/03/04 05:55:40;;;;;;;14.02;4.82;;;;;;;;;;6265248;22;20060;-41
2022/03/04 05:58:05;;;;;;;18.48;5.43;;;;;;;;;;6264968;22;20015;-42
2022/03/04 06:00:31;;;;;;;10.73;4.95;;;;;;;;;;6265370;22;20091;-41
2022/03/04 06:02:57;;;;;;;11.80;4.50;;;;;;;;;;6264973;22;20007;-41
2022/03/04 06:05:22;;;;;;;7.00;4.20;;;;;;;;;;6265281;22;20329;-39
2022/03/04 06:07:48;;;;;;;14.45;4.93;;;;;;;;;;6264999;22;20081;-42
2022/03/04 06:10:13;;;;;;;9.85;4.60;;;;;;;;;;6265302;22;20008;-42
2022/03/04 06:12:38;;;;;;;6.28;3.97;;;;;;;;;;6264708;22;20447;-41
2022/03/04 06:15:04;;;;;;;9.00;4.47;;;;;;;;;;6264805;22;20004;-41
2022/03/04 06:17:30;;;;;;;10.35;4.40;;;;;;;;;;6265225;22;20008;-41
2022/03/04 06:19:55;;;;;;;7.68;4.20;;;;;;;;;;6264895;22;19999;-41
2022/03/04 06:22:21;;;;;;;7.75;4.50;;;;;;;;;;6265434;22;20016;-42
2022/03/04 06:24:47;;;;;;;8.30;4.28;;;;;;;;;;6264494;22;20069;-42
2022/03/04 06:27:12;;;;;;;8.18;4.53;;;;;;;;;;6264936;22;20036;-42
2022/03/04 06:29:37;;;;;;;7.78;4.93;;;;;;;;;;6264866;22;20069;-41
2022/03/04 06:32:03;;;;;;;7.05;4.80;;;;;;;;;;6265219;22;20027;-41
2022/03/04 06:34:29;;;;;;;7.47;5.20;;;;;;;;;;6264720;22;20039;-41
2022/03/04 06:36:54;;;;;;;6.00;4.93;;;;;;;;;;6264375;22;20440;-41
2022/03/04 06:39:19;;;;;;;9.13;5.32;;;;;;;;;;6264934;22;20000;-39
2022/03/04 06:41:45;;;;;;;8.55;5.32;;;;;;;;;;6264744;22;20018;-41
2022/03/04 06:44:10;;;;;;;8.95;5.28;;;;;;;;;;6264763;22;20007;-42
2022/03/04 06:46:36;;;;;;;5.03;4.40;;;;;;;;;;6264561;22;20060;-42
2022/03/04 06:49:02;;;;;;;6.60;5.07;;;;;;;;;;6265089;22;20008;-38
2022/03/04 06:51:28;;;;;;;6.78;5.03;;;;;;;;;;6264594;22;20006;-40
2022/03/04 06:53:53;;;;;;;5.55;4.70;;;;;;;;;;6264964;22;20011;-41
2022/03/04 06:56:19;;;;;;;5.60;4.63;;;;;;;;;;6264738;22;20444;-40
2022/03/04 06:58:45;;;;;;;7.38;4.53;;;;;;;;;;6264462;22;20404;-42
2022/03/04 07:01:10;;;;;;;6.30;5.20;;;;;;;;;;6264934;22;20000;-42
2022/03/04 07:03:36;;;;;;;7.00;5.20;;;;;;;;;;6264304;22;20004;-41
2022/03/04 07:06:01;;;;;;;6.55;5.18;;;;;;;;;;6264654;22;20363;-41
2022/03/04 07:08:27;;;;;;;8.52;5.07;;;;;;;;;;6264889;22;20003;-42
2022/03/04 07:10:52;;;;;;;8.77;5.75;;;;;;;;;;6264524;22;20022;-39
2022/03/04 07:13:19;;;;;;;8.88;5.45;;;;;;;;;;6237443;22;20043;-42
2022/03/04 07:15:44;;;;;;;7.50;5.40;;;;;;;;;;6264367;22;20004;-40
2022/03/04 07:18:10;;;;;;;5.38;4.78;;;;;;;;;;6264780;22;20049;-41
2022/03/04 07:20:35;;;;;;;7.38;5.38;;;;;;;;;;6264363;22;20004;-42
2022/03/04 07:23:01;;;;;;;7.35;5.82;;;;;;;;;;6264444;22;20008;-41
2022/03/04 07:25:26;;;;;;;7.10;5.22;;;;;;;;;;6264641;22;20063;-41
2022/03/04 07:27:52;;;;;;;7.70;5.25;;;;;;;;;;6264306;22;20079;-40
2022/03/04 07:30:17;;;;;;;7.57;5.50;;;;;;;;;;6264841;22;20414;-42
2022/03/04 07:32:43;;;;;;;7.95;5.65;;;;;;;;;;6263996;22;20057;-41
2022/03/04 07:35:09;;;;;;;7.10;5.53;;;;;;;;;;6263794;22;20375;-39
2022/03/04 07:37:35;;;;;;;9.57;6.13;;;;;;;;;;6237501;22;20319;-41
2022/03/04 07:40:02;;;;;;;9.85;6.07;;;;;;;;;;6264480;22;20007;-38
2022/03/04 07:42:28;;;;;;;11.70;5.30;;;;;;;;;;6237181;22;20007;-41
2022/03/04 07:44:53;;;;;;;8.23;5.60;;;;;;;;;;6264239;22;20010;-40
2022/03/04 07:47:19;;;;;;;9.95;5.97;;;;;;;;;;6264470;22;20654;-41
2022/03/04 07:49:44;;;;;;;9.95;5.68;;;;;;;;;;6264108;22;20004;-41
2022/03/04 07:52:10;;;;;;;7.80;5.70;;;;;;;;;;6264230;22;20006;-42
2022/03/04 07:54:35;;;;;;;9.60;5.75;;;;;;;;;;6264113;22;20138;-39
2022/03/04 07:57:01;;;;;;;8.40;6.05;;;;;;;;;;6263940;22;20007;-41
2022/03/04 07:59:26;;;;;;;8.52;5.90;;;;;;;;;;6264571;22;20014;-41
2022/03/04 08:01:52;;;;;;;9.90;5.55;;;;;;;;;;6264416;22;20521;-41
2022/03/04 08:04:17;;;;;;;7.82;6.10;;;;;;;;;;6264417;22;19996;-41
2022/03/04 08:06:42;;;;;;;8.38;6.07;;;;;;;;;;6264524;22;20007;-41
2022/03/04 08:09:08;;;;;;;7.38;5.22;;;;;;;;;;6264596;22;20004;-41
2022/03/04 08:11:34;;;;;;;7.60;5.72;;;;;;;;;;6264648;22;20008;-41
2022/03/04 08:13:59;;;;;;;8.13;5.88;;;;;;;;;;6266105;22;20007;-41
2022/03/04 08:16:25;;;;;;;8.27;5.47;;;;;;;;;;6265810;22;20781;-41
2022/03/04 08:18:52;;;;;;;7.80;5.80;;;;;;;;;;6265422;22;20004;-41
2022/03/04 08:21:18;;;;;;;8.45;5.60;;;;;;;;;;6266229;22;20007;-42
2022/03/04 08:23:43;;;;;;;7.03;5.55;;;;;;;;;;6239013;22;20508;-42
2022/03/04 08:26:09;;;;;;;10.30;6.20;;;;;;;;;;6266597;22;20003;-41
2022/03/04 08:28:34;;;;;;;8.27;5.80;;;;;;;;;;6265839;22;20061;-41
2022/03/04 08:31:00;;;;;;;7.63;5.60;;;;;;;;;;6266085;22;20011;-42
2022/03/04 08:33:27;;;;;;;8.45;5.38;;;;;;;;;;6266120;22;20414;-40
2022/03/04 08:35:52;;;;;;;7.60;5.70;;;;;;;;;;6266003;22;20783;-43
2022/03/04 08:38:18;;;;;;;8.90;5.70;;;;;;;;;;6266350;22;20008;-39
2022/03/04 08:40:43;;;;;;;7.07;5.32;;;;;;;;;;6266454;22;20011;-41
2022/03/04 08:43:09;;;;;;;7.28;5.75;;;;;;;;;;6265698;22;20476;-38
2022/03/04 08:45:34;;;;;;;7.70;5.90;;;;;;;;;;6265693;22;20003;-41
2022/03/04 08:48:00;;;;;;;8.43;5.82;;;;;;;;;;6265583;22;19999;-40
2022/03/04 08:50:25;;;;;;;7.97;5.30;;;;;;;;;;6266212;22;20011;-40
2022/03/04 08:52:51;;;;;;;9.52;5.65;;;;;;;;;;6264939;22;20417;-41
2022/03/04 08:55:17;;;;;;;7.45;5.68;;;;;;;;;;6266001;22;20065;-40
2022/03/04 08:57:43;;;;;;;7.65;5.63;;;;;;;;;;6265239;22;20070;-41
2022/03/04 09:00:09;;;;;;;9.48;5.78;;;;;;;;;;6265510;22;20559;-40
2022/03/04 09:02:35;;;;;;;7.25;5.60;;;;;;;;;;6265737;22;20031;-38
2022/03/04 09:05:00;;;;;;;10.80;6.07;;;;;;;;;;6265775;22;20007;-41
2022/03/04 09:07:25;;;;;;;7.93;5.82;;;;;;;;;;6265851;22;20366;-42
2022/03/04 09:09:51;;;;;;;8.48;6.57;;;;;;;;;;6265632;22;20004;-41
2022/03/04 09:12:18;;;;;;;9.52;6.43;;;;;;;;;;6265915;22;20060;-41
2022/03/04 09:14:44;;;;;;;8.48;5.80;;;;;;;;;;6265913;22;20090;-41
2022/03/04 09:17:09;;;;;;;9.88;6.35;;;;;;;;;;6266089;22;20608;-41
2022/03/04 09:19:35;;;;;;;8.80;5.82;;;;;;;;;;6265760;22;20496;-41
2022/03/04 09:22:00;;;;;;;8.27;6.22;;;;;;;;;;6265635;22;20007;-41
2022/03/04 09:24:25;;;;;;;7.45;5.82;;;;;;;;;;6265080;22;20003;-38
2022/03/04 09:26:51;;;;;;;7.68;5.93;;;;;;;;;;6265031;22;20031;-41
2022/03/04 09:29:16;;;;;;;10.30;7.05;;;;;;;;;;6265792;22;20008;-41
2022/03/04 09:31:42;;;;;;;9.57;7.50;;;;;;;;;;6265712;22;19999;-40
2022/03/04 09:34:07;;;;;;;9.82;7.35;;;;;;;;;;6265817;22;20012;-41
2022/03/04 09:36:33;;;;;;;9.60;7.47;;;;;;;;;;6265954;22;20360;-40
2022/03/04 09:38:58;;;;;;;9.50;7.60;;;;;;;;;;6265525;22;20861;-41
2022/03/04 09:41:25;;;;;;;10.05;7.80;;;;;;;;;;6265569;22;20006;-41
2022/03/04 09:43:51;;;;;;;10.57;7.97;;;;;;;;;;6265329;22;20011;-41
2022/03/04 09:46:19;;;;;;;11.30;8.38;;;;;;;;;;6265805;22;20360;-41
2022/03/04 09:48:44;;;;;;;10.48;7.93;;;;;;;;;;6238808;22;20023;-40
2022/03/04 09:51:10;;;;;;;10.32;7.97;;;;;;;;;;6212499;22;20056;-39
2022/03/04 09:53:35;;;;;;;11.82;8.25;;;;;;;;;;6265216;22;20061;-41
2022/03/04 09:56:01;;;;;;;10.88;8.25;;;;;;;;;;6265419;22;20000;-41
2022/03/04 09:58:26;;;;;;;10.50;8.07;;;;;;;;;;6265267;22;20011;-42
2022/03/04 10:00:51;;;;;;;10.20;8.32;;;;;;;;;;6265533;22;20015;-40
2022/03/04 10:03:21;;;;;;;10.25;8.00;;;;;;;;;;6265328;22;19996;-42
2022/03/04 10:05:57;;;;;;;10.43;7.90;;;;;;;;;;6265362;22;20470;-42
2022/03/04 10:08:23;;;;;;;10.35;8.27;;;;;;;;;;6265329;22;20078;-42
2022/03/04 10:10:56;;;;;;;13.13;8.60;;;;;;;;;;6265289;22;20061;-41
2022/03/04 10:13:44;;;;;;;10.65;8.75;;;;;;;;;;6265401;22;19999;-40
2022/03/04 10:16:11;;;;;;;10.75;8.35;;;;;;;;;;6265240;22;20475;-39
2022/03/04 10:18:37;;;;;;;11.63;8.60;;;;;;;;;;6264757;22;19996;-40
2022/03/04 10:21:02;;;;;;;9.98;8.02;;;;;;;;;;6265357;22;20007;-41
2022/03/04 10:23:27;;;;;;;11.77;8.52;;;;;;;;;;6265182;22;20007;-40
2022/03/04 10:25:55;;;;;;;11.13;8.80;;;;;;;;;;6265213;22;20029;-40
2022/03/04 10:28:28;;;;;;;9.93;8.23;;;;;;;;;;6265306;22;20014;-41
2022/03/04 10:30:54;;;;;;;;;;;;;;;;;;6265175;22;20021;-41
2022/03/04 10:33:21;;;;;;;8.77;7.18;;;;;;;;;;6264855;22;19911;-41
2022/03/04 10:35:50;;;;;;;10.80;7.63;;;;;;;;;;6264607;22;20473;-42
2022/03/04 10:38:24;;;;;;;11.52;7.50;;;;;;;;;;6265133;22;20038;-42
2022/03/04 10:40:50;;;;;;;11.88;8.05;;;;;;;;;;6264841;22;20003;-41
2022/03/04 10:43:22;;;;;;;11.95;8.20;;;;;;;;;;6264777;22;20083;-38
2022/03/04 10:45:48;;;;;;;9.35;7.53;;;;;;;;;;6264745;22;20359;-41
2022/03/04 10:48:15;;;;;;;9.77;7.43;;;;;;;;;;6237903;22;20007;-41
2022/03/04 10:51:06;;;;;;;10.73;7.80;;;;;;;;;;6263984;22;20003;-41
2022/03/04 10:53:32;;;;;;;10.02;8.05;;;;;;;;;;6264952;22;20091;-42
2022/03/04 10:56:02;;;;;;;10.40;7.60;;;;;;;;;;6264828;22;20034;-40
2022/03/04 10:58:28;;;;;;;9.10;7.47;;;;;;;;;;6264699;22;20649;-41
2022/03/04 11:01:02;;;;;;;11.32;8.20;;;;;;;;;;6264560;22;20018;-41
2022/03/04 11:03:30;;;;;;;9.70;7.55;;;;;;;;;;6264706;22;19999;-41
2022/03/04 11:05:57;;;;;;;9.35;7.03;;;;;;;;;;6264524;22;20348;-41
2022/03/04 11:08:23;;;;;;;9.68;7.13;;;;;;;;;;6264760;22;20954;-41
2022/03/04 11:10:49;;;;;;;9.55;7.55;;;;;;;;;;6237233;22;20038;-43
2022/03/04 11:13:14;;;;;;;9.95;7.45;;;;;;;;;;6264595;22;19995;-42
2022/03/04 11:15:40;;;;;;;9.70;7.32;;;;;;;;;;6237229;22;20000;-42
2022/03/04 11:18:11;;;;;;;11.13;8.07;;;;;;;;;;6264707;22;20012;-41
2022/03/04 11:20:38;;;;;;;9.55;7.20;;;;;;;;;;6264460;22;20063;-42
2022/03/04 11:23:03;;;;;;;9.15;7.28;;;;;;;;;;6264723;22;20027;-42
2022/03/04 11:25:36;;;;;;;10.13;7.32;;;;;;;;;;6264671;22;20658;-41
2022/03/04 11:28:10;;;;;;;8.77;6.88;;;;;;;;;;6264338;22;20010;-41
2022/03/04 11:30:44;;;;;;;9.93;7.32;;;;;;;;;;6264251;22;20003;-38
2022/03/04 11:33:22;;;;;;;9.55;6.53;;;;;;;;;;6237474;22;20008;-40
2022/03/04 11:36:17;;;;;;;9.52;6.85;;;;;;;;;;6237245;22;20462;-41
2022/03/04 11:38:46;;;;;;;9.02;7.00;;;;;;;;;;6223645;22;20004;-41
2022/03/04 11:41:36;;;;;;;11.00;7.13;;;;;;;;;;6264286;22;20499;-41
2022/03/04 11:44:18;;;;;;;10.65;6.82;;;;;;;;;;6219460;22;20542;-39
2022/03/04 11:46:56;;;;;;;9.50;7.80;;;;;;;;;;6264811;22;20058;-40
2022/03/04 11:49:27;;;;;;;8.52;7.32;;;;;;;;;;6266222;22;20007;-41
2022/03/04 11:52:09;;;;;;;8.88;7.18;;;;;;;;;;6265486;22;20177;-38
2022/03/04 11:54:35;;;;;;;8.65;6.97;;;;;;;;;;6266552;22;20414;-40
2022/03/04 11:57:13;;;;;;;10.23;7.47;;;;;;;;;;6264853;22;20499;-38
2022/03/04 11:59:39;;;;;;;9.05;7.18;;;;;;;;;;6241817;22;20523;-41
2022/03/04 12:02:05;;;;;;;10.70;7.38;;;;;;;;;;6266377;22;20036;-38
2022/03/04 12:04:34;;;;;;;10.45;7.55;;;;;;;;;;6266708;22;20031;-39
2022/03/04 12:07:07;;;;;;;9.68;7.30;;;;;;;;;;6239607;22;20012;-40
2022/03/04 12:09:32;;;;;;;12.35;7.55;;;;;;;;;;6266433;22;20004;-39
2022/03/04 12:12:18;;;;;;;10.30;7.72;;;;;;;;;;6266152;22;20031;-37
2022/03/04 12:14:48;;;;;;;12.80;8.13;;;;;;;;;;6239313;22;20007;-41
2022/03/04 12:17:13;;;;;;;13.43;8.15;;;;;;;;;;6240050;22;20007;-41
2022/03/04 12:19:39;;;;;;;10.57;7.95;;;;;;;;;;6266487;22;20008;-35
2022/03/04 12:22:05;;;;;;;13.98;8.63;;;;;;;;;;6266620;22;20069;-41
2022/03/04 12:24:31;;;;;;;14.25;10.00;;;;;;;;;;6266162;22;20000;-41
2022/03/04 12:26:57;;;;;;;13.27;8.45;;;;;;;;;;6266292;22;20010;-40
2022/03/04 12:29:40;;;;;;;11.68;7.93;;;;;;;;;;6266484;22;20439;-41
2022/03/04 12:32:05;;;;;;;13.80;8.90;;;;;;;;;;6242815;22;20145;-40
2022/03/04 12:34:32;;;;;;;14.20;8.38;;;;;;;;;;6266370;22;20004;-41
2022/03/04 12:36:58;;;;;;;11.98;8.13;;;;;;;;;;6265808;22;20004;-40
2022/03/04 12:39:23;;;;;;;11.90;8.40;;;;;;;;;;6265844;22;20031;-41
2022/03/04 12:41:55;;;;;;;12.45;8.43;;;;;;;;;;6265279;22;20717;-41
2022/03/04 12:44:21;;;;;;;12.27;8.85;;;;;;;;;;6263549;22;20091;-41
2022/03/04 12:46:46;;;;;;;11.45;7.97;;;;;;;;;;6265531;22;20008;-40
2022/03/04 12:49:13;;;;;;;12.63;8.70;;;;;;;;;;6266092;22;20363;-41
2022/03/04 12:51:40;;;;;;;13.23;8.63;;;;;;;;;;6265701;22;20008;-41
2022/03/04 12:54:16;;;;;;;11.65;8.50;;;;;;;;;;6265423;22;20405;-41
2022/03/04 12:56:41;;;;;;;10.93;7.70;;;;;;;;;;6265388;22;20012;-42
2022/03/04 12:59:09;;;;;;;11.10;7.57;;;;;;;;;;6265766;22;20078;-41
2022/03/04 13:01:41;;;;;;;12.70;8.90;;;;;;;;;;6239786;22;20061;-41
2022/03/04 13:04:07;;;;;;;9.73;7.25;;;;;;;;;;6240379;22;20003;-41
2022/03/04 13:06:34;;;;;;;13.90;7.60;;;;;;;;;;6213499;22;20015;-41
2022/03/04 13:09:01;;;;;;;11.30;7.68;;;;;;;;;;6265731;22;20359;-40
2022/03/04 13:11:28;;;;;;;13.10;8.40;;;;;;;;;;6265658;22;20007;-41
2022/03/04 13:13:55;;;;;;;11.93;8.32;;;;;;;;;;6265821;22;20090;-41
2022/03/04 13:16:23;;;;;;;11.43;7.55;;;;;;;;;;6265764;22;20010;-39
2022/03/04 13:18:49;;;;;;;11.85;7.65;;;;;;;;;;6238356;22;20003;-41
2022/03/04 13:21:14;;;;;;;10.35;7.30;;;;;;;;;;6238638;22;20000;-41
2022/03/04 13:23:49;;;;;;;11.50;8.00;;;;;;;;;;6265701;22;20011;-41
2022/03/04 13:26:14;;;;;;;9.98;6.78;;;;;;;;;;6265954;22;20004;-41
2022/03/04 13:28:54;;;;;;;12.18;7.45;;;;;;;;;;6265719;22;20014;-41
2022/03/04 13:31:21;;;;;;;9.85;7.60;;;;;;;;;;6265729;22;20076;-42
2022/03/04 13:33:47;;;;;;;10.20;7.05;;;;;;;;;;6265631;22;20008;-41
2022/03/04 13:36:12;;;;;;;9.85;7.00;;;;;;;;;;6265948;22;20010;-41
2022/03/04 13:38:40;;;;;;;10.00;7.28;;;;;;;;;;6265685;22;20052;-41
2022/03/04 13:41:20;;;;;;;10.25;6.88;;;;;;;;;;6265065;22;20004;-41
2022/03/04 13:43:45;;;;;;;9.50;6.72;;;;;;;;;;6265276;22;20012;-41
2022/03/04 13:46:13;;;;;;;10.27;7.32;;;;;;;;;;6265736;22;20003;-41
2022/03/04 13:48:39;;;;;;;8.70;6.70;;;;;;;;;;6265373;22;20157;-41
2022/03/04 13:51:11;;;;;;;9.68;7.05;;;;;;;;;;6264884;22;20007;-42
2022/03/04 13:53:36;;;;;;;10.20;6.87;;;;;;;;;;6265404;22;20007;-41
2022/03/04 13:56:02;;;;;;;9.15;6.20;;;;;;;;;;6212942;22;20008;-39
2022/03/04 13:58:31;;;;;;;10.05;7.13;;;;;;;;;;6265171;22;20851;-42
2022/03/04 14:01:04;;;;;;;8.80;6.25;;;;;;;;;;6264963;22;20463;-40
2022/03/04 14:03:31;;;;;;;8.63;6.70;;;;;;;;;;6265492;22;20008;-41
2022/03/04 14:06:00;;;;;;;8.07;6.25;;;;;;;;;;6265227;22;20012;-41
2022/03/04 14:08:26;;;;;;;8.70;6.93;;;;;;;;;;6265568;22;20079;-40
2022/03/04 14:10:52;;;;;;;9.20;6.43;;;;;;;;;;6264666;22;20483;-42
2022/03/04 14:13:19;;;;;;;7.47;6.03;;;;;;;;;;6265247;22;20011;-41
2022/03/04 14:15:45;;;;;;;9.27;6.10;;;;;;;;;;6264808;22;20060;-39
2022/03/04 14:18:12;;;;;;;8.60;6.32;;;;;;;;;;6265037;22;20125;-41
2022/03/04 14:20:39;;;;;;;9.00;6.30;;;;;;;;;;6265220;22;20478;-40
2022/03/04 14:23:05;;;;;;;7.95;5.88;;;;;;;;;;6265056;22;20066;-41
2022/03/04 14:25:30;;;;;;;8.23;5.93;;;;;;;;;;6265359;22;20003;-42
2022/03/04 14:27:55;;;;;;;8.38;6.18;;;;;;;;;;6265356;22;20004;-41
2022/03/04 14:30:22;;;;;;;9.07;5.85;;;;;;;;;;6265263;22;20007;-41
2022/03/04 14:32:51;;;;;;;8.18;6.10;;;;;;;;;;6264958;22;20018;-41
2022/03/04 14:35:21;;;;;;;8.05;5.90;;;;;;;;;;6263894;22;20088;-41
2022/03/04 14:37:47;;;;;;;6.80;5.30;;;;;;;;;;6264217;22;20026;-42